sensor_id;sensor_type;location;lat;lon;timestamp;temperature;humidity
44435;DHT22;30138;20.964;105.830;2023-11-19T00:00:41;23.80;71.90
44435;DHT22;30138;20.964;105.830;2023-11-19T00:05:49;23.80;72.50
44435;DHT22;30138;20.964;105.830;2023-11-19T00:10:55;23.80;72.90
44435;DHT22;30138;20.964;105.830;2023-11-19T00:16:02;23.80;73.30
44435;DHT22;30138;20.964;105.830;2023-11-19T00:21:12;23.70;73.60
44435;DHT22;30138;20.964;105.830;2023-11-19T00:26:20;23.70;73.80
44435;DHT22;30138;20.964;105.830;2023-11-19T00:31:28;23.70;74.10
44435;DHT22;30138;20.964;105.830;2023-11-19T00:36:37;23.70;74.20
44435;DHT22;30138;20.964;105.830;2023-11-19T00:41:43;23.70;74.20
44435;DHT22;30138;20.964;105.830;2023-11-19T00:46:50;23.80;74.30
44435;DHT22;30138;20.964;105.830;2023-11-19T00:51:57;23.80;74.70
44435;DHT22;30138;20.964;105.830;2023-11-19T00:57:04;23.80;74.40
44435;DHT22;30138;20.964;105.830;2023-11-19T01:02:11;23.80;74.50
44435;DHT22;30138;20.964;105.830;2023-11-19T01:07:20;23.80;74.50
44435;DHT22;30138;20.964;105.830;2023-11-19T01:12:28;23.80;74.50
44435;DHT22;30138;20.964;105.830;2023-11-19T01:17:35;23.80;74.50
44435;DHT22;30138;20.964;105.830;2023-11-19T01:22:43;23.80;74.70
44435;DHT22;30138;20.964;105.830;2023-11-19T01:27:51;23.80;74.80
44435;DHT22;30138;20.964;105.830;2023-11-19T01:33:00;23.80;74.90
44435;DHT22;30138;20.964;105.830;2023-11-19T01:38:10;23.80;75.10
44435;DHT22;30138;20.964;105.830;2023-11-19T01:43:33;23.80;75.20
44435;DHT22;30138;20.964;105.830;2023-11-19T01:48:42;23.80;75.20
44435;DHT22;30138;20.964;105.830;2023-11-19T01:53:53;23.80;75.30
44435;DHT22;30138;20.964;105.830;2023-11-19T01:59:00;23.90;75.30
44435;DHT22;30138;20.964;105.830;2023-11-19T02:04:07;24.00;75.00
44435;DHT22;30138;20.964;105.830;2023-11-19T02:09:16;24.00;74.90
44435;DHT22;30138;20.964;105.830;2023-11-19T02:14:25;24.10;75.00
44435;DHT22;30138;20.964;105.830;2023-11-19T02:19:31;24.10;74.90
44435;DHT22;30138;20.964;105.830;2023-11-19T02:24:39;24.20;74.80
44435;DHT22;30138;20.964;105.830;2023-11-19T02:29:48;24.20;74.70
44435;DHT22;30138;20.964;105.830;2023-11-19T02:34:56;24.20;74.80
44435;DHT22;30138;20.964;105.830;2023-11-19T02:40:02;24.30;74.90
44435;DHT22;30138;20.964;105.830;2023-11-19T02:45:13;24.40;74.30
44435;DHT22;30138;20.964;105.830;2023-11-19T02:50:20;24.40;74.90
44435;DHT22;30138;20.964;105.830;2023-11-19T02:55:30;24.40;74.90
44435;DHT22;30138;20.964;105.830;2023-11-19T03:00:45;24.50;75.00
44435;DHT22;30138;20.964;105.830;2023-11-19T03:05:57;24.50;74.50
44435;DHT22;30138;20.964;105.830;2023-11-19T03:11:07;24.60;75.10
44435;DHT22;30138;20.964;105.830;2023-11-19T03:16:16;24.60;75.20
44435;DHT22;30138;20.964;105.830;2023-11-19T03:21:28;24.70;75.20
44435;DHT22;30138;20.964;105.830;2023-11-19T03:26:35;24.60;75.10
44435;DHT22;30138;20.964;105.830;2023-11-19T03:31:44;24.70;75.20
44435;DHT22;30138;20.964;105.830;2023-11-19T03:36:50;24.70;75.10
44435;DHT22;30138;20.964;105.830;2023-11-19T03:41:56;24.70;75.00
44435;DHT22;30138;20.964;105.830;2023-11-19T03:47:04;24.80;75.00
44435;DHT22;30138;20.964;105.830;2023-11-19T03:52:10;24.80;74.90
44435;DHT22;30138;20.964;105.830;2023-11-19T03:57:16;24.80;75.00
44435;DHT22;30138;20.964;105.830;2023-11-19T04:02:25;24.90;74.80
44435;DHT22;30138;20.964;105.830;2023-11-19T04:07:32;24.90;74.90
44435;DHT22;30138;20.964;105.830;2023-11-19T04:12:38;24.90;74.90
44435;DHT22;30138;20.964;105.830;2023-11-19T04:17:47;25.00;74.80
44435;DHT22;30138;20.964;105.830;2023-11-19T04:22:53;25.00;74.70
44435;DHT22;30138;20.964;105.830;2023-11-19T04:28:00;25.00;73.60
44435;DHT22;30138;20.964;105.830;2023-11-19T04:33:08;25.00;74.30
44435;DHT22;30138;20.964;105.830;2023-11-19T04:38:14;25.10;74.20
44435;DHT22;30138;20.964;105.830;2023-11-19T04:43:21;25.10;74.00
44435;DHT22;30138;20.964;105.830;2023-11-19T04:48:28;25.10;73.80
44435;DHT22;30138;20.964;105.830;2023-11-19T04:53:35;25.10;73.50
44435;DHT22;30138;20.964;105.830;2023-11-19T04:58:41;25.20;73.60
44435;DHT22;30138;20.964;105.830;2023-11-19T05:03:50;25.20;73.50
44435;DHT22;30138;20.964;105.830;2023-11-19T05:08:56;25.20;73.10
44435;DHT22;30138;20.964;105.830;2023-11-19T05:14:04;25.20;73.00
44435;DHT22;30138;20.964;105.830;2023-11-19T05:19:13;25.20;72.70
44435;DHT22;30138;20.964;105.830;2023-11-19T05:24:20;25.20;72.60
44435;DHT22;30138;20.964;105.830;2023-11-19T05:29:26;25.30;72.60
44435;DHT22;30138;20.964;105.830;2023-11-19T05:34:34;25.30;72.60
44435;DHT22;30138;20.964;105.830;2023-11-19T05:39:41;25.30;72.60
44435;DHT22;30138;20.964;105.830;2023-11-19T05:44:47;25.40;72.20
44435;DHT22;30138;20.964;105.830;2023-11-19T05:49:55;25.40;72.90
44435;DHT22;30138;20.964;105.830;2023-11-19T05:55:01;25.40;72.90
44435;DHT22;30138;20.964;105.830;2023-11-19T06:00:12;25.50;72.80
44435;DHT22;30138;20.964;105.830;2023-11-19T06:05:25;25.50;72.80
44435;DHT22;30138;20.964;105.830;2023-11-19T06:10:32;25.50;72.80
44435;DHT22;30138;20.964;105.830;2023-11-19T06:15:38;25.50;72.50
44435;DHT22;30138;20.964;105.830;2023-11-19T06:20:47;25.60;72.60
44435;DHT22;30138;20.964;105.830;2023-11-19T06:25:53;25.60;72.30
44435;DHT22;30138;20.964;105.830;2023-11-19T06:30:59;25.60;71.30
44435;DHT22;30138;20.964;105.830;2023-11-19T06:36:09;25.60;70.60
44435;DHT22;30138;20.964;105.830;2023-11-19T06:41:16;25.70;70.90
44435;DHT22;30138;20.964;105.830;2023-11-19T06:46:23;25.70;70.40
44435;DHT22;30138;20.964;105.830;2023-11-19T06:51:31;25.70;70.90
44435;DHT22;30138;20.964;105.830;2023-11-19T06:56:37;25.70;70.30
44435;DHT22;30138;20.964;105.830;2023-11-19T07:01:44;25.70;70.20
44435;DHT22;30138;20.964;105.830;2023-11-19T07:06:54;25.80;69.80
44435;DHT22;30138;20.964;105.830;2023-11-19T07:12:00;25.80;70.10
44435;DHT22;30138;20.964;105.830;2023-11-19T07:17:07;25.80;69.70
44435;DHT22;30138;20.964;105.830;2023-11-19T07:22:15;25.80;69.50
44435;DHT22;30138;20.964;105.830;2023-11-19T07:27:23;25.80;69.00
44435;DHT22;30138;20.964;105.830;2023-11-19T07:32:31;25.80;68.40
44435;DHT22;30138;20.964;105.830;2023-11-19T07:37:42;25.80;69.00
44435;DHT22;30138;20.964;105.830;2023-11-19T07:42:48;25.90;69.30
44435;DHT22;30138;20.964;105.830;2023-11-19T07:47:55;25.90;69.20
44435;DHT22;30138;20.964;105.830;2023-11-19T07:53:03;25.90;69.20
44435;DHT22;30138;20.964;105.830;2023-11-19T07:58:10;25.90;68.20
44435;DHT22;30138;20.964;105.830;2023-11-19T08:03:16;25.90;68.20
44435;DHT22;30138;20.964;105.830;2023-11-19T08:08:26;25.90;68.40
44435;DHT22;30138;20.964;105.830;2023-11-19T08:13:35;25.90;68.80
44435;DHT22;30138;20.964;105.830;2023-11-19T08:18:43;25.90;68.10
44435;DHT22;30138;20.964;105.830;2023-11-19T08:23:51;25.90;67.70
44435;DHT22;30138;20.964;105.830;2023-11-19T08:28:58;25.90;67.50
44435;DHT22;30138;20.964;105.830;2023-11-19T08:34:05;25.90;67.70
44435;DHT22;30138;20.964;105.830;2023-11-19T08:39:14;25.90;67.90
44435;DHT22;30138;20.964;105.830;2023-11-19T08:44:21;25.90;67.70
44435;DHT22;30138;20.964;105.830;2023-11-19T08:49:27;25.90;67.30
44435;DHT22;30138;20.964;105.830;2023-11-19T08:54:36;25.90;68.00
44435;DHT22;30138;20.964;105.830;2023-11-19T08:59:43;25.90;68.10
44435;DHT22;30138;20.964;105.830;2023-11-19T09:04:50;25.90;67.90
44435;DHT22;30138;20.964;105.830;2023-11-19T09:09:59;25.90;68.40
44435;DHT22;30138;20.964;105.830;2023-11-19T09:15:07;25.90;68.50
44435;DHT22;30138;20.964;105.830;2023-11-19T09:20:15;25.80;68.20
44435;DHT22;30138;20.964;105.830;2023-11-19T09:25:23;25.90;68.20
44435;DHT22;30138;20.964;105.830;2023-11-19T09:30:29;25.80;67.90
44435;DHT22;30138;20.964;105.830;2023-11-19T09:35:36;25.80;68.40
44435;DHT22;30138;20.964;105.830;2023-11-19T09:40:44;25.90;68.70
44435;DHT22;30138;20.964;105.830;2023-11-19T09:45:52;25.80;68.60
44435;DHT22;30138;20.964;105.830;2023-11-19T09:50:59;25.80;69.20
44435;DHT22;30138;20.964;105.830;2023-11-19T09:56:10;25.80;69.00
44435;DHT22;30138;20.964;105.830;2023-11-19T10:01:17;25.80;69.10
44435;DHT22;30138;20.964;105.830;2023-11-19T10:06:24;25.80;69.30
44435;DHT22;30138;20.964;105.830;2023-11-19T10:11:34;25.80;69.30
44435;DHT22;30138;20.964;105.830;2023-11-19T10:16:40;25.80;69.40
44435;DHT22;30138;20.964;105.830;2023-11-19T10:21:47;25.80;69.40
44435;DHT22;30138;20.964;105.830;2023-11-19T10:26:57;25.80;69.60
44435;DHT22;30138;20.964;105.830;2023-11-19T10:32:05;25.80;69.40
44435;DHT22;30138;20.964;105.830;2023-11-19T10:37:27;25.80;68.10
44435;DHT22;30138;20.964;105.830;2023-11-19T10:42:36;25.80;67.30
44435;DHT22;30138;20.964;105.830;2023-11-19T10:47:44;25.80;67.30
44435;DHT22;30138;20.964;105.830;2023-11-19T10:52:52;25.80;66.90
44435;DHT22;30138;20.964;105.830;2023-11-19T10:58:04;25.80;66.40
44435;DHT22;30138;20.964;105.830;2023-11-19T11:03:15;25.80;65.60
44435;DHT22;30138;20.964;105.830;2023-11-19T11:08:22;25.80;65.50
44435;DHT22;30138;20.964;105.830;2023-11-19T11:13:32;25.80;66.30
44435;DHT22;30138;20.964;105.830;2023-11-19T11:18:39;25.80;64.40
44435;DHT22;30138;20.964;105.830;2023-11-19T11:29:38;25.80;62.70
44435;DHT22;30138;20.964;105.830;2023-11-19T11:34:58;25.70;62.50
44435;DHT22;30138;20.964;105.830;2023-11-19T11:40:14;25.70;63.80
44435;DHT22;30138;20.964;105.830;2023-11-19T11:45:35;25.80;65.40
44435;DHT22;30138;20.964;105.830;2023-11-19T11:50:56;25.80;65.90
44435;DHT22;30138;20.964;105.830;2023-11-19T11:56:03;25.70;65.10
44435;DHT22;30138;20.964;105.830;2023-11-19T12:01:15;25.70;64.50
44435;DHT22;30138;20.964;105.830;2023-11-19T12:06:23;25.80;64.00
44435;DHT22;30138;20.964;105.830;2023-11-19T12:11:32;25.80;63.60
44435;DHT22;30138;20.964;105.830;2023-11-19T12:16:42;25.70;62.30
44435;DHT22;30138;20.964;105.830;2023-11-19T12:21:48;25.70;62.90
44435;DHT22;30138;20.964;105.830;2023-11-19T12:26:55;25.70;62.70
44435;DHT22;30138;20.964;105.830;2023-11-19T12:32:04;25.70;62.60
44435;DHT22;30138;20.964;105.830;2023-11-19T12:37:10;25.70;62.30
44435;DHT22;30138;20.964;105.830;2023-11-19T12:42:16;25.70;61.90
44435;DHT22;30138;20.964;105.830;2023-11-19T12:47:24;25.70;61.80
44435;DHT22;30138;20.964;105.830;2023-11-19T12:52:30;25.70;61.70
44435;DHT22;30138;20.964;105.830;2023-11-19T12:57:40;25.70;61.40
44435;DHT22;30138;20.964;105.830;2023-11-19T13:02:49;25.70;61.30
44435;DHT22;30138;20.964;105.830;2023-11-19T13:08:02;25.70;61.30
44435;DHT22;30138;20.964;105.830;2023-11-19T13:13:09;25.70;61.70
44435;DHT22;30138;20.964;105.830;2023-11-19T13:18:17;25.60;61.70
44435;DHT22;30138;20.964;105.830;2023-11-19T13:23:24;25.60;60.90
44435;DHT22;30138;20.964;105.830;2023-11-19T13:33:39;25.60;61.40
44435;DHT22;30138;20.964;105.830;2023-11-19T13:38:46;25.60;62.70
44435;DHT22;30138;20.964;105.830;2023-11-19T13:43:52;25.60;64.70
44435;DHT22;30138;20.964;105.830;2023-11-19T13:49:00;25.60;65.90
44435;DHT22;30138;20.964;105.830;2023-11-19T13:54:06;25.60;66.50
44435;DHT22;30138;20.964;105.830;2023-11-19T13:59:12;25.60;66.80
44435;DHT22;30138;20.964;105.830;2023-11-19T14:04:20;25.60;67.30
44435;DHT22;30138;20.964;105.830;2023-11-19T14:09:26;25.60;67.60
44435;DHT22;30138;20.964;105.830;2023-11-19T14:14:33;25.60;67.70
44435;DHT22;30138;20.964;105.830;2023-11-19T14:19:40;25.60;67.90
44435;DHT22;30138;20.964;105.830;2023-11-19T14:24:47;25.60;68.10
44435;DHT22;30138;20.964;105.830;2023-11-19T14:29:54;25.50;67.90
44435;DHT22;30138;20.964;105.830;2023-11-19T14:35:04;25.60;67.80
44435;DHT22;30138;20.964;105.830;2023-11-19T14:40:11;25.60;67.80
44435;DHT22;30138;20.964;105.830;2023-11-19T14:45:17;25.50;67.60
44435;DHT22;30138;20.964;105.830;2023-11-19T14:50:25;25.50;67.60
44435;DHT22;30138;20.964;105.830;2023-11-19T14:55:33;25.50;68.40
44435;DHT22;30138;20.964;105.830;2023-11-19T15:00:40;25.50;67.80
44435;DHT22;30138;20.964;105.830;2023-11-19T15:05:47;25.50;67.80
44435;DHT22;30138;20.964;105.830;2023-11-19T15:10:54;25.50;67.90
44435;DHT22;30138;20.964;105.830;2023-11-19T15:16:01;25.50;68.00
44435;DHT22;30138;20.964;105.830;2023-11-19T15:21:11;25.40;68.80
44435;DHT22;30138;20.964;105.830;2023-11-19T15:26:17;25.40;68.20
44435;DHT22;30138;20.964;105.830;2023-11-19T15:31:24;25.40;68.30
44435;DHT22;30138;20.964;105.830;2023-11-19T15:36:33;25.40;68.30
44435;DHT22;30138;20.964;105.830;2023-11-19T15:41:40;25.40;68.30
44435;DHT22;30138;20.964;105.830;2023-11-19T15:46:48;25.40;68.30
44435;DHT22;30138;20.964;105.830;2023-11-19T15:51:59;25.40;68.40
44435;DHT22;30138;20.964;105.830;2023-11-19T15:57:07;25.40;68.50
44435;DHT22;30138;20.964;105.830;2023-11-19T16:02:15;25.40;68.40
44435;DHT22;30138;20.964;105.830;2023-11-19T16:07:22;25.40;68.50
44435;DHT22;30138;20.964;105.830;2023-11-19T16:12:29;25.40;68.60
44435;DHT22;30138;20.964;105.830;2023-11-19T16:17:35;25.30;68.60
44435;DHT22;30138;20.964;105.830;2023-11-19T16:22:45;25.30;68.70
44435;DHT22;30138;20.964;105.830;2023-11-19T16:27:53;25.30;68.70
44435;DHT22;30138;20.964;105.830;2023-11-19T16:33:00;25.30;68.60
44435;DHT22;30138;20.964;105.830;2023-11-19T16:38:08;25.30;68.70
44435;DHT22;30138;20.964;105.830;2023-11-19T16:43:15;25.30;68.60
44435;DHT22;30138;20.964;105.830;2023-11-19T16:48:21;25.20;68.50
44435;DHT22;30138;20.964;105.830;2023-11-19T16:53:29;25.20;68.60
44435;DHT22;30138;20.964;105.830;2023-11-19T16:58:37;25.20;68.60
44435;DHT22;30138;20.964;105.830;2023-11-19T17:03:45;25.20;68.70
44435;DHT22;30138;20.964;105.830;2023-11-19T17:08:55;25.20;68.70
44435;DHT22;30138;20.964;105.830;2023-11-19T17:14:01;25.20;68.20
44435;DHT22;30138;20.964;105.830;2023-11-19T17:19:08;25.20;68.90
44435;DHT22;30138;20.964;105.830;2023-11-19T17:24:17;25.20;69.10
44435;DHT22;30138;20.964;105.830;2023-11-19T17:29:23;25.20;69.20
44435;DHT22;30138;20.964;105.830;2023-11-19T17:34:30;25.20;69.10
44435;DHT22;30138;20.964;105.830;2023-11-19T17:39:38;25.20;68.90
44435;DHT22;30138;20.964;105.830;2023-11-19T17:44:45;25.10;68.70
44435;DHT22;30138;20.964;105.830;2023-11-19T17:49:51;25.10;68.60
44435;DHT22;30138;20.964;105.830;2023-11-19T17:55:00;25.10;68.30
44435;DHT22;30138;20.964;105.830;2023-11-19T18:00:09;25.10;68.10
44435;DHT22;30138;20.964;105.830;2023-11-19T18:05:18;25.10;67.50
44435;DHT22;30138;20.964;105.830;2023-11-19T18:10:28;25.10;67.20
44435;DHT22;30138;20.964;105.830;2023-11-19T18:15:35;25.10;67.10
44435;DHT22;30138;20.964;105.830;2023-11-19T18:20:43;25.10;67.40
44435;DHT22;30138;20.964;105.830;2023-11-19T18:25:53;25.10;67.60
44435;DHT22;30138;20.964;105.830;2023-11-19T18:31:01;25.00;67.90
44435;DHT22;30138;20.964;105.830;2023-11-19T18:36:08;25.00;68.40
44435;DHT22;30138;20.964;105.830;2023-11-19T18:41:20;25.10;68.80
44435;DHT22;30138;20.964;105.830;2023-11-19T18:46:27;25.00;69.10
44435;DHT22;30138;20.964;105.830;2023-11-19T18:51:35;25.00;69.20
44435;DHT22;30138;20.964;105.830;2023-11-19T18:56:44;25.00;69.60
44435;DHT22;30138;20.964;105.830;2023-11-19T19:01:52;25.00;69.90
44435;DHT22;30138;20.964;105.830;2023-11-19T19:07:00;25.00;70.20
44435;DHT22;30138;20.964;105.830;2023-11-19T19:12:10;25.00;70.50
44435;DHT22;30138;20.964;105.830;2023-11-19T19:17:17;25.00;70.20
44435;DHT22;30138;20.964;105.830;2023-11-19T19:22:25;24.90;70.80
44435;DHT22;30138;20.964;105.830;2023-11-19T19:27:34;25.00;70.90
44435;DHT22;30138;20.964;105.830;2023-11-19T19:32:40;24.90;71.10
44435;DHT22;30138;20.964;105.830;2023-11-19T19:37:48;25.00;71.40
44435;DHT22;30138;20.964;105.830;2023-11-19T19:42:56;25.00;71.70
44435;DHT22;30138;20.964;105.830;2023-11-19T19:48:03;24.90;71.80
44435;DHT22;30138;20.964;105.830;2023-11-19T19:53:10;24.90;72.00
44435;DHT22;30138;20.964;105.830;2023-11-19T19:58:19;24.90;72.00
44435;DHT22;30138;20.964;105.830;2023-11-19T20:03:26;24.90;71.90
44435;DHT22;30138;20.964;105.830;2023-11-19T20:08:33;24.90;72.00
44435;DHT22;30138;20.964;105.830;2023-11-19T20:13:42;24.90;72.20
44435;DHT22;30138;20.964;105.830;2023-11-19T20:18:49;24.80;72.20
44435;DHT22;30138;20.964;105.830;2023-11-19T20:23:56;24.90;72.50
44435;DHT22;30138;20.964;105.830;2023-11-19T20:29:07;24.80;72.60
44435;DHT22;30138;20.964;105.830;2023-11-19T20:34:15;24.80;73.70
44435;DHT22;30138;20.964;105.830;2023-11-19T20:39:22;24.80;73.20
44435;DHT22;30138;20.964;105.830;2023-11-19T20:44:33;24.80;73.50
44435;DHT22;30138;20.964;105.830;2023-11-19T20:49:40;24.80;73.90
44435;DHT22;30138;20.964;105.830;2023-11-19T20:54:48;24.80;74.00
44435;DHT22;30138;20.964;105.830;2023-11-19T20:59:56;24.80;74.20
44435;DHT22;30138;20.964;105.830;2023-11-19T21:05:04;24.80;74.40
44435;DHT22;30138;20.964;105.830;2023-11-19T21:10:12;24.80;74.60
44435;DHT22;30138;20.964;105.830;2023-11-19T21:15:21;24.80;75.50
44435;DHT22;30138;20.964;105.830;2023-11-19T21:20:28;24.80;74.90
44435;DHT22;30138;20.964;105.830;2023-11-19T21:25:35;24.80;75.10
44435;DHT22;30138;20.964;105.830;2023-11-19T21:30:44;24.70;75.30
44435;DHT22;30138;20.964;105.830;2023-11-19T21:35:50;24.70;75.40
44435;DHT22;30138;20.964;105.830;2023-11-19T21:40:58;24.70;75.50
44435;DHT22;30138;20.964;105.830;2023-11-19T21:46:08;24.70;75.60
44435;DHT22;30138;20.964;105.830;2023-11-19T21:51:15;24.70;75.60
44435;DHT22;30138;20.964;105.830;2023-11-19T21:56:22;24.70;75.60
44435;DHT22;30138;20.964;105.830;2023-11-19T22:01:30;24.70;75.60
44435;DHT22;30138;20.964;105.830;2023-11-19T22:06:38;24.70;75.60
44435;DHT22;30138;20.964;105.830;2023-11-19T22:11:45;24.60;75.60
44435;DHT22;30138;20.964;105.830;2023-11-19T22:16:54;24.60;75.60
44435;DHT22;30138;20.964;105.830;2023-11-19T22:22:01;24.60;75.70
44435;DHT22;30138;20.964;105.830;2023-11-19T22:27:08;24.60;75.70
44435;DHT22;30138;20.964;105.830;2023-11-19T22:32:17;24.60;75.60
44435;DHT22;30138;20.964;105.830;2023-11-19T22:37:23;24.60;75.50
44435;DHT22;30138;20.964;105.830;2023-11-19T22:42:30;24.50;74.80
44435;DHT22;30138;20.964;105.830;2023-11-19T22:47:40;24.50;75.50
44435;DHT22;30138;20.964;105.830;2023-11-19T22:52:47;24.50;75.50
44435;DHT22;30138;20.964;105.830;2023-11-19T22:57:54;24.50;75.70
44435;DHT22;30138;20.964;105.830;2023-11-19T23:03:02;24.50;75.80
44435;DHT22;30138;20.964;105.830;2023-11-19T23:08:09;24.50;76.20
44435;DHT22;30138;20.964;105.830;2023-11-19T23:13:16;24.50;76.20
44435;DHT22;30138;20.964;105.830;2023-11-19T23:18:24;24.50;76.40
44435;DHT22;30138;20.964;105.830;2023-11-19T23:23:31;24.50;76.70
44435;DHT22;30138;20.964;105.830;2023-11-19T23:28:38;24.50;76.90
44435;DHT22;30138;20.964;105.830;2023-11-19T23:33:47;24.40;77.20
44435;DHT22;30138;20.964;105.830;2023-11-19T23:38:53;24.50;77.50
44435;DHT22;30138;20.964;105.830;2023-11-19T23:44:00;24.40;77.60
44435;DHT22;30138;20.964;105.830;2023-11-19T23:49:10;24.40;77.90
44435;DHT22;30138;20.964;105.830;2023-11-19T23:54:17;24.40;78.00
44435;DHT22;30138;20.964;105.830;2023-11-19T23:59:24;24.40;78.20
